sensor_id;sensor_type;location;lat;lon;timestamp;pressure;altitude;pressure_sealevel;temperature;humidity
70133;BME280;57495;49.922;7.966;2024-02-26T00:00:14;98013.06;;;6.53;100.00
70133;BME280;57495;49.922;7.966;2024-02-26T00:02:18;98008.25;;;6.56;100.00
70133;BME280;57495;49.922;7.966;2024-02-26T00:04:18;98004.78;;;6.56;100.00
70133;BME280;57495;49.922;7.966;2024-02-26T00:06:19;98008.09;;;6.58;100.00
70133;BME280;57495;49.922;7.966;2024-02-26T00:08:21;97991.19;;;6.59;100.00
70133;BME280;57495;49.922;7.966;2024-02-26T00:10:23;97991.19;;;6.59;100.00
70133;BME280;57495;49.922;7.966;2024-02-26T00:12:24;97984.84;;;6.60;100.00
70133;BME280;57495;49.922;7.966;2024-02-26T00:14:25;97982.72;;;6.55;100.00
70133;BME280;57495;49.922;7.966;2024-02-26T00:16:27;97985.53;;;6.54;100.00
70133;BME280;57495;49.922;7.966;2024-02-26T00:18:29;97981.06;;;6.46;100.00
70133;BME280;57495;49.922;7.966;2024-02-26T00:20:31;97976.75;;;6.53;100.00
70133;BME280;57495;49.922;7.966;2024-02-26T00:22:32;97968.59;;;6.55;100.00
70133;BME280;57495;49.922;7.966;2024-02-26T00:24:34;97977.56;;;6.54;100.00
70133;BME280;57495;49.922;7.966;2024-02-26T00:26:35;97975.41;;;6.49;100.00
70133;BME280;57495;49.922;7.966;2024-02-26T00:28:35;97972.41;;;6.52;100.00
70133;BME280;57495;49.922;7.966;2024-02-26T00:30:37;97986.03;;;6.57;100.00
70133;BME280;57495;49.922;7.966;2024-02-26T00:32:38;97983.56;;;6.48;100.00
70133;BME280;57495;49.922;7.966;2024-02-26T00:34:41;97977.88;;;6.51;100.00
70133;BME280;57495;49.922;7.966;2024-02-26T00:36:42;97979.22;;;6.55;100.00
70133;BME280;57495;49.922;7.966;2024-02-26T00:38:44;97967.28;;;6.51;100.00
70133;BME280;57495;49.922;7.966;2024-02-26T00:40:50;97963.13;;;6.48;100.00
70133;BME280;57495;49.922;7.966;2024-02-26T00:42:52;97949.69;;;6.50;100.00
70133;BME280;57495;49.922;7.966;2024-02-26T00:44:53;97945.69;;;6.46;100.00
70133;BME280;57495;49.922;7.966;2024-02-26T00:46:54;97945.03;;;6.52;100.00
70133;BME280;57495;49.922;7.966;2024-02-26T00:48:56;97924.28;;;6.47;100.00
70133;BME280;57495;49.922;7.966;2024-02-26T00:50:59;97930.47;;;6.48;100.00
70133;BME280;57495;49.922;7.966;2024-02-26T00:53:00;97930.09;;;6.51;100.00
70133;BME280;57495;49.922;7.966;2024-02-26T00:55:02;97939.72;;;6.44;100.00
70133;BME280;57495;49.922;7.966;2024-02-26T00:57:04;97953.34;;;6.16;100.00
70133;BME280;57495;49.922;7.966;2024-02-26T00:59:05;97946.38;;;6.23;100.00
70133;BME280;57495;49.922;7.966;2024-02-26T01:01:07;97961.66;;;6.21;100.00
70133;BME280;57495;49.922;7.966;2024-02-26T01:03:09;97970.28;;;6.31;100.00
70133;BME280;57495;49.922;7.966;2024-02-26T01:05:10;97962.31;;;6.39;100.00
70133;BME280;57495;49.922;7.966;2024-02-26T01:07:13;97952.69;;;6.38;100.00
70133;BME280;57495;49.922;7.966;2024-02-26T01:09:14;97948.38;;;6.37;100.00
70133;BME280;57495;49.922;7.966;2024-02-26T01:11:17;97960.47;;;6.40;100.00
70133;BME280;57495;49.922;7.966;2024-02-26T01:13:18;97982.38;;;6.34;100.00
70133;BME280;57495;49.922;7.966;2024-02-26T01:15:20;97978.91;;;6.33;100.00
70133;BME280;57495;49.922;7.966;2024-02-26T01:17:23;97987.03;;;6.40;100.00
70133;BME280;57495;49.922;7.966;2024-02-26T01:19:25;97989.88;;;6.38;100.00
70133;BME280;57495;49.922;7.966;2024-02-26T01:21:26;97981.88;;;6.47;100.00
70133;BME280;57495;49.922;7.966;2024-02-26T01:23:30;97988.69;;;6.41;100.00
70133;BME280;57495;49.922;7.966;2024-02-26T01:25:31;97989.19;;;6.28;100.00
70133;BME280;57495;49.922;7.966;2024-02-26T01:27:32;97983.38;;;6.33;100.00
70133;BME280;57495;49.922;7.966;2024-02-26T01:29:34;97958.19;;;6.37;100.00
70133;BME280;57495;49.922;7.966;2024-02-26T01:31:35;97949.53;;;6.43;100.00
70133;BME280;57495;49.922;7.966;2024-02-26T01:33:37;97965.28;;;6.53;100.00
70133;BME280;57495;49.922;7.966;2024-02-26T01:35:38;97968.25;;;6.58;100.00
70133;BME280;57495;49.922;7.966;2024-02-26T01:37:39;97975.91;;;6.61;100.00
70133;BME280;57495;49.922;7.966;2024-02-26T01:39:43;97988.81;;;6.64;100.00
70133;BME280;57495;49.922;7.966;2024-02-26T01:41:45;97992.00;;;6.60;100.00
70133;BME280;57495;49.922;7.966;2024-02-26T01:43:46;97999.28;;;6.49;100.00
70133;BME280;57495;49.922;7.966;2024-02-26T01:45:47;98007.94;;;6.27;100.00
70133;BME280;57495;49.922;7.966;2024-02-26T01:47:50;98006.78;;;6.29;100.00
70133;BME280;57495;49.922;7.966;2024-02-26T01:49:51;98009.44;;;6.29;100.00
70133;BME280;57495;49.922;7.966;2024-02-26T01:51:53;98005.63;;;6.32;100.00
70133;BME280;57495;49.922;7.966;2024-02-26T01:53:54;98020.06;;;6.29;100.00
70133;BME280;57495;49.922;7.966;2024-02-26T01:55:57;98013.75;;;6.30;100.00
70133;BME280;57495;49.922;7.966;2024-02-26T01:57:59;98023.19;;;6.33;100.00
70133;BME280;57495;49.922;7.966;2024-02-26T02:00:01;98025.34;;;6.37;100.00
70133;BME280;57495;49.922;7.966;2024-02-26T02:02:05;98020.38;;;6.34;100.00
70133;BME280;57495;49.922;7.966;2024-02-26T02:04:09;98024.53;;;6.37;100.00
70133;BME280;57495;49.922;7.966;2024-02-26T02:06:11;98032.00;;;6.42;100.00
70133;BME280;57495;49.922;7.966;2024-02-26T02:08:13;98030.50;;;6.47;100.00
70133;BME280;57495;49.922;7.966;2024-02-26T02:10:15;98032.34;;;6.38;100.00
70133;BME280;57495;49.922;7.966;2024-02-26T02:12:16;98039.31;;;6.31;100.00
70133;BME280;57495;49.922;7.966;2024-02-26T02:14:18;98039.13;;;6.16;100.00
70133;BME280;57495;49.922;7.966;2024-02-26T02:16:19;98039.75;;;6.10;100.00
70133;BME280;57495;49.922;7.966;2024-02-26T02:18:21;98047.88;;;6.09;100.00
70133;BME280;57495;49.922;7.966;2024-02-26T02:20:26;98050.22;;;6.12;100.00
70133;BME280;57495;49.922;7.966;2024-02-26T02:22:27;98046.22;;;6.08;100.00
70133;BME280;57495;49.922;7.966;2024-02-26T02:24:29;98042.53;;;5.92;100.00
70133;BME280;57495;49.922;7.966;2024-02-26T02:26:30;98033.41;;;5.95;100.00
70133;BME280;57495;49.922;7.966;2024-02-26T02:28:32;98044.06;;;6.03;100.00
70133;BME280;57495;49.922;7.966;2024-02-26T02:30:33;98042.25;;;6.12;100.00
70133;BME280;57495;49.922;7.966;2024-02-26T02:32:37;98048.88;;;6.16;100.00
70133;BME280;57495;49.922;7.966;2024-02-26T02:34:41;98043.25;;;6.19;100.00
70133;BME280;57495;49.922;7.966;2024-02-26T02:36:53;98035.13;;;6.21;100.00
70133;BME280;57495;49.922;7.966;2024-02-26T02:38:54;98045.75;;;6.21;100.00
70133;BME280;57495;49.922;7.966;2024-02-26T02:40:56;98035.13;;;6.21;100.00
70133;BME280;57495;49.922;7.966;2024-02-26T02:42:56;98040.28;;;6.22;100.00
70133;BME280;57495;49.922;7.966;2024-02-26T02:44:59;98043.75;;;6.23;100.00
70133;BME280;57495;49.922;7.966;2024-02-26T02:47:00;98039.13;;;6.25;100.00
70133;BME280;57495;49.922;7.966;2024-02-26T02:49:00;98033.31;;;6.21;100.00
70133;BME280;57495;49.922;7.966;2024-02-26T02:51:02;98038.47;;;6.23;100.00
70133;BME280;57495;49.922;7.966;2024-02-26T02:53:05;98038.47;;;6.23;100.00
70133;BME280;57495;49.922;7.966;2024-02-26T02:55:07;98033.97;;;6.23;100.00
70133;BME280;57495;49.922;7.966;2024-02-26T02:57:09;98028.66;;;6.23;100.00
70133;BME280;57495;49.922;7.966;2024-02-26T02:59:09;98026.50;;;6.27;100.00
70133;BME280;57495;49.922;7.966;2024-02-26T03:01:10;98034.63;;;6.25;100.00
70133;BME280;57495;49.922;7.966;2024-02-26T03:03:14;98028.84;;;6.30;100.00
70133;BME280;57495;49.922;7.966;2024-02-26T03:05:15;98031.81;;;6.27;100.00
70133;BME280;57495;49.922;7.966;2024-02-26T03:07:17;98023.69;;;6.28;100.00
70133;BME280;57495;49.922;7.966;2024-02-26T03:09:19;98028.34;;;6.26;100.00
70133;BME280;57495;49.922;7.966;2024-02-26T03:11:21;98021.38;;;6.25;100.00
70133;BME280;57495;49.922;7.966;2024-02-26T03:13:22;98023.84;;;6.27;100.00
70133;BME280;57495;49.922;7.966;2024-02-26T03:15:24;98028.66;;;6.23;100.00
70133;BME280;57495;49.922;7.966;2024-02-26T03:17:24;98022.53;;;6.23;100.00
70133;BME280;57495;49.922;7.966;2024-02-26T03:19:25;98020.69;;;6.23;100.00
70133;BME280;57495;49.922;7.966;2024-02-26T03:21:27;98007.78;;;6.20;100.00
70133;BME280;57495;49.922;7.966;2024-02-26T03:23:28;98013.91;;;6.21;100.00
70133;BME280;57495;49.922;7.966;2024-02-26T03:25:31;98012.41;;;6.18;100.00
70133;BME280;57495;49.922;7.966;2024-02-26T03:27:32;98015.91;;;6.18;100.00
70133;BME280;57495;49.922;7.966;2024-02-26T03:29:34;98014.72;;;6.21;100.00
70133;BME280;57495;49.922;7.966;2024-02-26T03:31:35;98017.38;;;6.13;100.00
70133;BME280;57495;49.922;7.966;2024-02-26T03:33:36;98021.84;;;6.12;100.00
70133;BME280;57495;49.922;7.966;2024-02-26T03:35:38;98027.66;;;6.16;100.00
70133;BME280;57495;49.922;7.966;2024-02-26T03:37:39;98021.53;;;6.15;100.00
70133;BME280;57495;49.922;7.966;2024-02-26T03:39:41;98027.16;;;6.12;100.00
70133;BME280;57495;49.922;7.966;2024-02-26T03:41:43;98016.03;;;6.09;100.00
70133;BME280;57495;49.922;7.966;2024-02-26T03:43:45;98016.22;;;6.07;100.00
70133;BME280;57495;49.922;7.966;2024-02-26T03:45:47;98019.69;;;6.08;100.00
70133;BME280;57495;49.922;7.966;2024-02-26T03:47:48;98004.44;;;6.10;100.00
70133;BME280;57495;49.922;7.966;2024-02-26T03:49:50;98011.06;;;6.06;100.00
70133;BME280;57495;49.922;7.966;2024-02-26T03:51:51;98013.06;;;6.04;100.00
70133;BME280;57495;49.922;7.966;2024-02-26T03:53:52;98003.28;;;6.04;100.00
70133;BME280;57495;49.922;7.966;2024-02-26T03:55:54;98001.59;;;6.03;100.00
70133;BME280;57495;49.922;7.966;2024-02-26T03:57:57;98006.09;;;6.03;100.00
70133;BME280;57495;49.922;7.966;2024-02-26T03:59:57;98007.09;;;6.02;100.00
70133;BME280;57495;49.922;7.966;2024-02-26T04:02:00;98004.44;;;6.02;100.00
70133;BME280;57495;49.922;7.966;2024-02-26T04:04:02;98001.09;;;5.99;100.00
70133;BME280;57495;49.922;7.966;2024-02-26T04:06:04;98004.94;;;5.97;100.00
70133;BME280;57495;49.922;7.966;2024-02-26T04:08:05;98003.09;;;5.97;100.00
70133;BME280;57495;49.922;7.966;2024-02-26T04:10:10;98003.09;;;5.97;100.00
70133;BME280;57495;49.922;7.966;2024-02-26T04:12:11;98005.09;;;5.95;100.00
70133;BME280;57495;49.922;7.966;2024-02-26T04:14:13;98013.03;;;5.95;100.00
70133;BME280;57495;49.922;7.966;2024-02-26T04:16:15;98007.34;;;5.90;100.00
70133;BME280;57495;49.922;7.966;2024-02-26T04:18:17;98000.41;;;5.89;100.00
70133;BME280;57495;49.922;7.966;2024-02-26T04:20:18;98009.03;;;5.83;100.00
70133;BME280;57495;49.922;7.966;2024-02-26T04:22:20;98017.28;;;5.80;100.00
70133;BME280;57495;49.922;7.966;2024-02-26T04:24:21;98012.16;;;5.78;100.00
70133;BME280;57495;49.922;7.966;2024-02-26T04:26:22;98014.66;;;5.80;100.00
70133;BME280;57495;49.922;7.966;2024-02-26T04:28:24;98010.00;;;5.82;100.00
70133;BME280;57495;49.922;7.966;2024-02-26T04:30:30;98016.97;;;5.83;100.00
70133;BME280;57495;49.922;7.966;2024-02-26T04:32:31;98017.28;;;5.80;100.00
70133;BME280;57495;49.922;7.966;2024-02-26T04:34:32;98024.25;;;5.81;100.00
70133;BME280;57495;49.922;7.966;2024-02-26T04:36:33;98029.22;;;5.84;100.00
70133;BME280;57495;49.922;7.966;2024-02-26T04:38:35;98025.75;;;5.84;100.00
70133;BME280;57495;49.922;7.966;2024-02-26T04:40:36;98026.59;;;5.84;100.00
70133;BME280;57495;49.922;7.966;2024-02-26T04:42:37;98028.41;;;5.84;100.00
70133;BME280;57495;49.922;7.966;2024-02-26T04:44:39;98025.09;;;5.81;100.00
70133;BME280;57495;49.922;7.966;2024-02-26T04:46:41;98030.25;;;5.83;100.00
70133;BME280;57495;49.922;7.966;2024-02-26T04:48:43;98023.94;;;5.84;100.00
70133;BME280;57495;49.922;7.966;2024-02-26T04:50:46;98029.91;;;5.86;100.00
70133;BME280;57495;49.922;7.966;2024-02-26T04:52:48;98026.94;;;5.89;100.00
70133;BME280;57495;49.922;7.966;2024-02-26T04:54:49;98029.91;;;5.86;100.00
70133;BME280;57495;49.922;7.966;2024-02-26T04:56:51;98033.41;;;5.87;100.00
70133;BME280;57495;49.922;7.966;2024-02-26T04:58:52;98030.91;;;5.85;100.00
70133;BME280;57495;49.922;7.966;2024-02-26T05:00:53;98037.84;;;5.86;100.00
70133;BME280;57495;49.922;7.966;2024-02-26T05:02:55;98037.53;;;5.89;100.00
70133;BME280;57495;49.922;7.966;2024-02-26T05:04:56;98041.53;;;5.85;100.00
70133;BME280;57495;49.922;7.966;2024-02-26T05:06:57;98042.03;;;5.89;100.00
70133;BME280;57495;49.922;7.966;2024-02-26T05:08:59;98037.03;;;5.86;100.00
70133;BME280;57495;49.922;7.966;2024-02-26T05:10:59;98029.91;;;5.86;100.00
70133;BME280;57495;49.922;7.966;2024-02-26T05:13:02;98030.91;;;5.85;100.00
70133;BME280;57495;49.922;7.966;2024-02-26T05:15:05;98034.22;;;5.87;100.00
70133;BME280;57495;49.922;7.966;2024-02-26T05:17:06;98031.56;;;5.87;100.00
70133;BME280;57495;49.922;7.966;2024-02-26T05:19:09;98036.22;;;5.93;100.00
70133;BME280;57495;49.922;7.966;2024-02-26T05:21:10;98039.19;;;5.90;100.00
70133;BME280;57495;49.922;7.966;2024-02-26T05:23:12;98033.72;;;5.92;100.00
70133;BME280;57495;49.922;7.966;2024-02-26T05:25:14;98037.38;;;5.91;100.00
70133;BME280;57495;49.922;7.966;2024-02-26T05:27:16;98033.56;;;5.93;100.00
70133;BME280;57495;49.922;7.966;2024-02-26T05:29:17;98032.91;;;5.83;100.00
70133;BME280;57495;49.922;7.966;2024-02-26T05:31:18;98038.50;;;5.80;100.00
70133;BME280;57495;49.922;7.966;2024-02-26T05:33:20;98034.03;;;5.80;100.00
70133;BME280;57495;49.922;7.966;2024-02-26T05:35:23;98034.53;;;5.84;100.00
70133;BME280;57495;49.922;7.966;2024-02-26T05:37:24;98027.56;;;5.75;100.00
70133;BME280;57495;49.922;7.966;2024-02-26T05:39:25;98034.53;;;5.84;100.00
70133;BME280;57495;49.922;7.966;2024-02-26T05:41:27;98029.22;;;5.84;100.00
70133;BME280;57495;49.922;7.966;2024-02-26T05:43:28;98033.22;;;5.80;100.00
70133;BME280;57495;49.922;7.966;2024-02-26T05:45:30;98032.91;;;5.83;100.00
70133;BME280;57495;49.922;7.966;2024-02-26T05:47:32;98035.38;;;5.85;100.00
70133;BME280;57495;49.922;7.966;2024-02-26T05:49:32;98035.56;;;5.91;100.00
70133;BME280;57495;49.922;7.966;2024-02-26T05:51:35;98039.84;;;5.84;100.00
70133;BME280;57495;49.922;7.966;2024-02-26T05:53:36;98038.00;;;5.85;100.00
70133;BME280;57495;49.922;7.966;2024-02-26T05:55:37;98045.81;;;5.78;100.00
70133;BME280;57495;49.922;7.966;2024-02-26T05:57:38;98042.16;;;5.79;100.00
70133;BME280;57495;49.922;7.966;2024-02-26T05:59:40;98043.63;;;5.73;100.00
70133;BME280;57495;49.922;7.966;2024-02-26T06:01:41;98051.78;;;5.80;100.00
70133;BME280;57495;49.922;7.966;2024-02-26T06:03:43;98057.09;;;5.88;100.00
70133;BME280;57495;49.922;7.966;2024-02-26T06:05:44;98064.06;;;5.89;100.00
70133;BME280;57495;49.922;7.966;2024-02-26T06:07:47;98057.09;;;5.88;100.00
70133;BME280;57495;49.922;7.966;2024-02-26T06:09:48;98062.41;;;5.88;100.00
70133;BME280;57495;49.922;7.966;2024-02-26T06:11:50;98064.31;;;5.70;100.00
70133;BME280;57495;49.922;7.966;2024-02-26T06:13:51;98062.84;;;5.75;100.00
70133;BME280;57495;49.922;7.966;2024-02-26T06:15:52;98073.31;;;5.77;100.00
70133;BME280;57495;49.922;7.966;2024-02-26T06:17:54;98077.63;;;5.78;100.00
70133;BME280;57495;49.922;7.966;2024-02-26T06:19:55;98073.31;;;5.77;100.00
70133;BME280;57495;49.922;7.966;2024-02-26T06:21:57;98080.94;;;5.80;100.00
70133;BME280;57495;49.922;7.966;2024-02-26T06:24:01;98085.94;;;5.83;100.00
70133;BME280;57495;49.922;7.966;2024-02-26T06:26:03;98085.09;;;5.82;100.00
70133;BME280;57495;49.922;7.966;2024-02-26T06:28:05;98088.75;;;5.81;100.00
70133;BME280;57495;49.922;7.966;2024-02-26T06:30:07;98096.22;;;5.86;100.00
70133;BME280;57495;49.922;7.966;2024-02-26T06:32:08;98091.56;;;5.88;100.00
70133;BME280;57495;49.922;7.966;2024-02-26T06:34:10;98091.41;;;5.90;100.00
70133;BME280;57495;49.922;7.966;2024-02-26T06:36:12;98099.53;;;5.88;100.00
70133;BME280;57495;49.922;7.966;2024-02-26T06:38:13;98094.72;;;5.84;100.00
70133;BME280;57495;49.922;7.966;2024-02-26T06:40:17;98104.53;;;5.91;100.00
70133;BME280;57495;49.922;7.966;2024-02-26T06:42:18;98107.47;;;5.88;100.00
70133;BME280;57495;49.922;7.966;2024-02-26T06:44:19;98107.47;;;5.88;100.00
70133;BME280;57495;49.922;7.966;2024-02-26T06:46:21;98111.16;;;5.87;100.00
70133;BME280;57495;49.922;7.966;2024-02-26T06:48:23;98109.44;;;5.78;100.00
70133;BME280;57495;49.922;7.966;2024-02-26T06:50:24;98107.78;;;5.77;100.00
70133;BME280;57495;49.922;7.966;2024-02-26T06:52:26;98111.22;;;5.69;100.00
70133;BME280;57495;49.922;7.966;2024-02-26T06:54:28;98116.69;;;5.68;100.00
70133;BME280;57495;49.922;7.966;2024-02-26T06:56:30;98120.38;;;5.75;100.00
70133;BME280;57495;49.922;7.966;2024-02-26T06:58:32;98116.91;;;5.82;100.00
70133;BME280;57495;49.922;7.966;2024-02-26T07:00:34;98125.22;;;5.88;100.00
70133;BME280;57495;49.922;7.966;2024-02-26T07:02:35;98124.53;;;5.77;100.00
70133;BME280;57495;49.922;7.966;2024-02-26T07:04:36;98126.94;;;5.62;100.00
70133;BME280;57495;49.922;7.966;2024-02-26T07:06:37;98138.56;;;5.70;100.00
70133;BME280;57495;49.922;7.966;2024-02-26T07:08:39;98146.81;;;5.58;100.00
70133;BME280;57495;49.922;7.966;2024-02-26T07:10:40;98141.13;;;5.53;100.00
70133;BME280;57495;49.922;7.966;2024-02-26T07:12:43;98146.78;;;5.50;100.00
70133;BME280;57495;49.922;7.966;2024-02-26T07:14:44;98145.94;;;5.50;100.00
70133;BME280;57495;49.922;7.966;2024-02-26T07:16:46;98149.19;;;5.70;100.00
70133;BME280;57495;49.922;7.966;2024-02-26T07:18:47;98150.72;;;5.80;100.00
70133;BME280;57495;49.922;7.966;2024-02-26T07:20:49;98146.06;;;5.74;100.00
70133;BME280;57495;49.922;7.966;2024-02-26T07:22:50;98153.50;;;5.71;100.00
70133;BME280;57495;49.922;7.966;2024-02-26T07:24:51;98157.34;;;5.76;100.00
70133;BME280;57495;49.922;7.966;2024-02-26T07:26:53;98148.94;;;5.89;100.00
70133;BME280;57495;49.922;7.966;2024-02-26T07:28:56;98154.56;;;5.86;100.00
70133;BME280;57495;49.922;7.966;2024-02-26T07:30:58;98150.72;;;5.80;100.00
70133;BME280;57495;49.922;7.966;2024-02-26T07:32:59;98145.63;;;5.87;100.00
70133;BME280;57495;49.922;7.966;2024-02-26T07:35:01;98145.69;;;5.95;100.00
70133;BME280;57495;49.922;7.966;2024-02-26T07:37:02;98139.75;;;6.02;100.00
70133;BME280;57495;49.922;7.966;2024-02-26T07:39:06;98144.06;;;6.03;100.00
70133;BME280;57495;49.922;7.966;2024-02-26T07:41:07;98144.34;;;5.99;100.00
70133;BME280;57495;49.922;7.966;2024-02-26T07:43:08;98146.03;;;6.00;100.00
70133;BME280;57495;49.922;7.966;2024-02-26T07:45:11;98152.88;;;6.11;100.00
70133;BME280;57495;49.922;7.966;2024-02-26T07:47:12;98161.00;;;6.10;100.00
70133;BME280;57495;49.922;7.966;2024-02-26T07:49:14;98160.47;;;6.06;100.00
70133;BME280;57495;49.922;7.966;2024-02-26T07:51:15;98166.81;;;6.13;100.00
70133;BME280;57495;49.922;7.966;2024-02-26T07:53:16;98165.34;;;6.19;100.00
70133;BME280;57495;49.922;7.966;2024-02-26T07:55:17;98166.31;;;6.10;100.00
70133;BME280;57495;49.922;7.966;2024-02-26T07:57:19;98166.59;;;6.07;100.00
70133;BME280;57495;49.922;7.966;2024-02-26T07:59:21;98161.94;;;6.00;100.00
70133;BME280;57495;49.922;7.966;2024-02-26T08:01:24;98164.97;;;6.06;100.00
70133;BME280;57495;49.922;7.966;2024-02-26T08:03:26;98170.78;;;6.09;100.00
70133;BME280;57495;49.922;7.966;2024-02-26T08:05:28;98169.25;;;5.98;100.00
70133;BME280;57495;49.922;7.966;2024-02-26T08:07:29;98180.88;;;6.06;100.00
70133;BME280;57495;49.922;7.966;2024-02-26T08:09:30;98177.56;;;6.04;100.00
70133;BME280;57495;49.922;7.966;2024-02-26T08:11:32;98179.88;;;6.07;100.00
70133;BME280;57495;49.922;7.966;2024-02-26T08:13:32;98188.00;;;6.05;100.00
70133;BME280;57495;49.922;7.966;2024-02-26T08:15:35;98181.06;;;6.12;100.00
70133;BME280;57495;49.922;7.966;2024-02-26T08:17:38;98186.56;;;6.19;100.00
70133;BME280;57495;49.922;7.966;2024-02-26T08:19:40;98188.03;;;6.13;100.00
70133;BME280;57495;49.922;7.966;2024-02-26T08:21:41;98191.22;;;6.17;100.00
70133;BME280;57495;49.922;7.966;2024-02-26T08:23:43;98195.88;;;6.23;100.00
70133;BME280;57495;49.922;7.966;2024-02-26T08:25:44;98196.34;;;6.18;100.00
70133;BME280;57495;49.922;7.966;2024-02-26T08:27:45;98195.50;;;6.18;100.00
70133;BME280;57495;49.922;7.966;2024-02-26T08:29:47;98198.16;;;6.18;100.00
70133;BME280;57495;49.922;7.966;2024-02-26T08:31:49;98203.66;;;6.16;100.00
70133;BME280;57495;49.922;7.966;2024-02-26T08:33:51;98199.84;;;6.19;100.00
70133;BME280;57495;49.922;7.966;2024-02-26T08:35:53;98194.88;;;6.24;100.00
70133;BME280;57495;49.922;7.966;2024-02-26T08:37:54;98205.50;;;6.24;100.00
70133;BME280;57495;49.922;7.966;2024-02-26T08:39:55;98212.59;;;6.24;100.00
70133;BME280;57495;49.922;7.966;2024-02-26T08:41:56;98213.81;;;6.29;100.00
70133;BME280;57495;49.922;7.966;2024-02-26T08:44:00;98217.16;;;6.31;100.00
70133;BME280;57495;49.922;7.966;2024-02-26T08:46:01;98218.78;;;6.32;100.00
70133;BME280;57495;49.922;7.966;2024-02-26T08:48:03;98213.16;;;6.35;100.00
70133;BME280;57495;49.922;7.966;2024-02-26T08:50:06;98212.16;;;6.36;100.00
70133;BME280;57495;49.922;7.966;2024-02-26T08:52:09;98213.53;;;6.41;100.00
70133;BME280;57495;49.922;7.966;2024-02-26T08:54:10;98210.53;;;6.44;100.00
70133;BME280;57495;49.922;7.966;2024-02-26T08:56:11;98208.22;;;6.49;100.00
70133;BME280;57495;49.922;7.966;2024-02-26T08:58:16;98207.41;;;6.56;100.00
70133;BME280;57495;49.922;7.966;2024-02-26T09:00:18;98207.75;;;6.70;100.00
70133;BME280;57495;49.922;7.966;2024-02-26T09:02:20;98195.66;;;6.75;100.00
70133;BME280;57495;49.922;7.966;2024-02-26T09:04:22;98198.31;;;6.92;100.00
70133;BME280;57495;49.922;7.966;2024-02-26T09:06:24;98189.72;;;7.06;100.00
70133;BME280;57495;49.922;7.966;2024-02-26T09:08:26;98187.22;;;7.21;100.00
70133;BME280;57495;49.922;7.966;2024-02-26T09:10:28;98204.31;;;7.27;100.00
70133;BME280;57495;49.922;7.966;2024-02-26T09:12:29;98207.97;;;7.34;100.00
70133;BME280;57495;49.922;7.966;2024-02-26T09:14:31;98212.13;;;7.36;100.00
70133;BME280;57495;49.922;7.966;2024-02-26T09:16:32;98213.28;;;7.34;100.00
70133;BME280;57495;49.922;7.966;2024-02-26T09:18:33;98209.97;;;7.48;100.00
70133;BME280;57495;49.922;7.966;2024-02-26T09:20:33;98211.44;;;7.67;100.00
70133;BME280;57495;49.922;7.966;2024-02-26T09:22:36;98219.06;;;7.70;100.00
70133;BME280;57495;49.922;7.966;2024-02-26T09:24:38;98219.41;;;7.67;100.00
70133;BME280;57495;49.922;7.966;2024-02-26T09:26:40;98212.75;;;7.80;100.00
70133;BME280;57495;49.922;7.966;2024-02-26T09:28:41;98210.91;;;7.80;100.00
70133;BME280;57495;49.922;7.966;2024-02-26T09:30:42;98212.56;;;7.73;100.00
70133;BME280;57495;49.922;7.966;2024-02-26T09:32:46;98213.91;;;7.69;100.00
70133;BME280;57495;49.922;7.966;2024-02-26T09:34:47;98217.59;;;7.60;100.00
70133;BME280;57495;49.922;7.966;2024-02-26T09:36:48;98208.63;;;7.61;100.00
70133;BME280;57495;49.922;7.966;2024-02-26T09:38:50;98219.72;;;7.64;100.00
70133;BME280;57495;49.922;7.966;2024-02-26T09:40:52;98222.56;;;7.71;100.00
70133;BME280;57495;49.922;7.966;2024-02-26T09:42:57;98225.69;;;7.83;100.00
70133;BME280;57495;49.922;7.966;2024-02-26T09:45:00;98224.69;;;7.84;100.00
70133;BME280;57495;49.922;7.966;2024-02-26T09:47:09;98226.53;;;7.83;100.00
70133;BME280;57495;49.922;7.966;2024-02-26T09:49:12;98225.56;;;7.76;100.00
70133;BME280;57495;49.922;7.966;2024-02-26T09:51:14;98230.53;;;7.79;100.00
70133;BME280;57495;49.922;7.966;2024-02-26T09:53:18;98250.00;;;7.80;100.00
70133;BME280;57495;49.922;7.966;2024-02-26T09:55:24;98241.00;;;7.81;100.00
70133;BME280;57495;49.922;7.966;2024-02-26T09:57:26;98245.81;;;7.85;100.00
70133;BME280;57495;49.922;7.966;2024-02-26T09:59:27;98248.31;;;7.87;100.00
70133;BME280;57495;49.922;7.966;2024-02-26T10:01:29;98247.50;;;7.78;100.00
70133;BME280;57495;49.922;7.966;2024-02-26T10:03:38;98252.00;;;7.78;100.00
70133;BME280;57495;49.922;7.966;2024-02-26T10:05:41;98252.50;;;7.81;100.00
70133;BME280;57495;49.922;7.966;2024-02-26T10:07:44;98247.50;;;7.78;100.00
70133;BME280;57495;49.922;7.966;2024-02-26T10:09:44;98246.31;;;7.81;100.00
70133;BME280;57495;49.922;7.966;2024-02-26T10:11:47;98253.47;;;7.80;100.00
70133;BME280;57495;49.922;7.966;2024-02-26T10:13:50;98252.81;;;7.78;100.00
70133;BME280;57495;49.922;7.966;2024-02-26T10:15:51;98252.16;;;7.68;100.00
70133;BME280;57495;49.922;7.966;2024-02-26T10:17:55;98261.81;;;7.61;100.00
70133;BME280;57495;49.922;7.966;2024-02-26T10:20:11;98259.34;;;7.59;100.00
70133;BME280;57495;49.922;7.966;2024-02-26T10:22:13;98266.16;;;7.53;100.00
70133;BME280;57495;49.922;7.966;2024-02-26T10:24:14;98277.44;;;7.47;100.00
70133;BME280;57495;49.922;7.966;2024-02-26T10:26:16;98275.44;;;7.49;100.00
70133;BME280;57495;49.922;7.966;2024-02-26T10:28:19;98280.94;;;7.56;100.00
70133;BME280;57495;49.922;7.966;2024-02-26T10:30:20;98277.94;;;7.59;100.00
70133;BME280;57495;49.922;7.966;2024-02-26T10:32:22;98274.94;;;7.62;100.00
70133;BME280;57495;49.922;7.966;2024-02-26T10:34:23;98280.44;;;7.69;100.00
70133;BME280;57495;49.922;7.966;2024-02-26T10:36:25;98280.09;;;7.55;100.00
70133;BME280;57495;49.922;7.966;2024-02-26T10:38:27;98287.72;;;7.59;100.00
70133;BME280;57495;49.922;7.966;2024-02-26T10:40:28;98288.25;;;7.54;100.00
70133;BME280;57495;49.922;7.966;2024-02-26T10:42:30;98292.75;;;7.53;100.00
70133;BME280;57495;49.922;7.966;2024-02-26T10:44:33;98296.72;;;7.49;100.00